createdAt,value
2018-12-04T00:01:27.749Z,73.10
2018-12-04T00:03:55.799Z,73.00
2018-12-04T00:06:23.857Z,73.20
2018-12-04T00:08:51.979Z,73.00
2018-12-04T00:11:20.085Z,73.00
2018-12-04T00:13:49.187Z,73.10
2018-12-04T00:16:17.289Z,73.20
2018-12-04T00:18:45.377Z,74.40
2018-12-04T00:21:13.461Z,74.80
2018-12-04T00:23:42.701Z,74.60
2018-12-04T00:26:10.784Z,74.50
2018-12-04T00:28:38.760Z,74.60
2018-12-04T00:31:06.741Z,74.70
2018-12-04T00:33:34.815Z,75.20
2018-12-04T00:36:02.956Z,75.30
2018-12-04T00:38:31.065Z,74.70
2018-12-04T00:40:59.130Z,74.30
2018-12-04T00:43:27.197Z,73.70
2018-12-04T00:45:55.312Z,73.20
2018-12-04T00:48:23.452Z,73.50
2018-12-04T00:50:51.518Z,73.20
2018-12-04T00:53:19.583Z,72.50
2018-12-04T00:55:47.563Z,71.30
2018-12-04T00:58:15.752Z,71.20
2018-12-04T01:00:43.713Z,71.50
2018-12-04T01:03:11.711Z,71.40
2018-12-04T01:05:39.833Z,71.00
2018-12-04T01:08:08.883Z,70.60
2018-12-04T01:10:36.969Z,70.80
2018-12-04T01:13:05.053Z,70.80
2018-12-04T01:15:33.084Z,70.00
2018-12-04T01:18:01.138Z,70.50
2018-12-04T01:20:29.347Z,70.30
2018-12-04T01:22:57.458Z,70.10
2018-12-04T01:25:25.556Z,69.30
2018-12-04T01:27:53.655Z,69.10
2018-12-04T01:30:21.707Z,69.30
2018-12-04T01:32:49.753Z,69.20
2018-12-04T01:35:17.856Z,69.30
2018-12-04T01:37:45.923Z,69.10
2018-12-04T01:40:13.994Z,69.20
2018-12-04T01:42:42.079Z,69.60
2018-12-04T01:45:10.121Z,68.40
2018-12-04T01:47:38.211Z,67.80
2018-12-04T01:50:06.303Z,68.90
2018-12-04T01:52:34.423Z,68.60
2018-12-04T01:55:02.490Z,69.10
2018-12-04T01:57:30.555Z,69.00
2018-12-04T01:59:58.653Z,68.60
2018-12-04T02:02:26.625Z,68.40
2018-12-04T02:04:54.678Z,67.60
2018-12-04T02:07:22.695Z,68.00
2018-12-04T02:09:50.739Z,67.70
2018-12-04T02:12:18.911Z,66.60
2018-12-04T02:14:47.005Z,66.80
2018-12-04T02:17:15.066Z,66.40
2018-12-04T02:19:43.131Z,66.40
2018-12-04T02:22:11.181Z,66.00
2018-12-04T02:24:39.321Z,66.40
2018-12-04T02:27:07.376Z,65.60
2018-12-04T02:29:35.437Z,65.30
2018-12-04T02:32:03.397Z,65.00
2018-12-04T02:34:31.466Z,65.70
2018-12-04T02:36:59.444Z,65.50
2018-12-04T02:39:27.565Z,66.10
2018-12-04T02:41:55.704Z,65.60
2018-12-04T02:44:23.787Z,66.30
2018-12-04T02:46:51.880Z,66.40
2018-12-04T02:49:19.980Z,67.00
2018-12-04T02:51:48.045Z,66.80
2018-12-04T02:54:16.148Z,66.60
2018-12-04T02:56:44.270Z,67.20
2018-12-04T02:59:12.346Z,67.20
2018-12-04T03:01:40.470Z,67.00
2018-12-04T03:04:08.460Z,66.90
2018-12-04T03:06:36.430Z,66.90
2018-12-04T03:09:06.476Z,67.30
2018-12-04T03:11:35.898Z,66.90
2018-12-04T03:14:03.926Z,67.10
2018-12-04T03:16:31.870Z,67.30
2018-12-04T03:18:59.938Z,67.60
2018-12-04T03:21:27.884Z,67.20
2018-12-04T03:23:55.959Z,66.90
2018-12-04T03:26:24.040Z,67.00
2018-12-04T03:28:52.025Z,67.70
2018-12-04T03:31:20.037Z,67.60
2018-12-04T03:33:48.080Z,68.00
2018-12-04T03:36:16.128Z,68.10
2018-12-04T03:38:44.089Z,68.00
2018-12-04T03:41:13.167Z,67.40
2018-12-04T03:43:41.196Z,67.50
2018-12-04T03:46:09.291Z,67.60
2018-12-04T03:48:37.341Z,67.80
2018-12-04T03:51:05.453Z,67.80
2018-12-04T03:53:33.529Z,67.50
2018-12-04T03:56:01.619Z,67.40
2018-12-04T03:58:29.726Z,67.30
2018-12-04T04:00:57.885Z,67.30
2018-12-04T04:03:25.880Z,67.00
2018-12-04T04:05:54.008Z,66.90
2018-12-04T04:08:22.090Z,67.00
2018-12-04T04:10:50.209Z,67.20
2018-12-04T04:13:18.256Z,66.80
2018-12-04T04:15:46.347Z,66.80
2018-12-04T04:18:14.492Z,66.60
2018-12-04T04:20:42.649Z,66.40
2018-12-04T04:23:10.752Z,66.60
2018-12-04T04:25:38.913Z,66.10
2018-12-04T04:28:07.033Z,66.30
2018-12-04T04:30:35.057Z,66.20
2018-12-04T04:33:03.017Z,66.60
2018-12-04T04:35:32.872Z,66.40
2018-12-04T04:38:00.985Z,65.90
2018-12-04T04:40:29.027Z,65.80
2018-12-04T04:42:57.075Z,66.30
2018-12-04T04:45:25.208Z,66.40
2018-12-04T04:47:53.310Z,66.30
2018-12-04T04:50:21.340Z,66.00
2018-12-04T04:52:49.399Z,65.70
2018-12-04T04:55:17.491Z,65.80
2018-12-04T04:57:45.647Z,65.80
2018-12-04T05:00:13.721Z,66.30
2018-12-04T05:02:41.936Z,66.50
2018-12-04T05:05:10.025Z,66.50
2018-12-04T05:07:38.152Z,66.10
2018-12-04T05:10:06.717Z,66.10
2018-12-04T05:12:34.790Z,66.20
2018-12-04T05:15:03.949Z,66.30
2018-12-04T05:17:32.032Z,66.40
2018-12-04T05:20:00.055Z,66.60
2018-12-04T05:22:28.099Z,66.50
2018-12-04T05:24:56.225Z,66.60
2018-12-04T05:27:24.298Z,66.60
2018-12-04T05:29:52.429Z,66.70
2018-12-04T05:32:20.512Z,66.60
2018-12-04T05:34:48.643Z,65.90
2018-12-04T05:37:16.719Z,66.40
2018-12-04T05:39:44.806Z,66.50
2018-12-04T05:42:12.864Z,66.10
2018-12-04T05:44:40.853Z,66.40
2018-12-04T05:47:08.984Z,66.20
2018-12-04T05:49:36.946Z,66.00
2018-12-04T05:52:04.950Z,66.10
2018-12-04T05:54:33.123Z,66.00
2018-12-04T05:57:01.121Z,65.40
2018-12-04T05:59:29.216Z,65.60
2018-12-04T06:01:57.239Z,65.70
2018-12-04T06:04:25.274Z,66.00
2018-12-04T06:06:53.384Z,66.00
2018-12-04T06:09:21.413Z,66.10
2018-12-04T06:11:49.508Z,66.20
2018-12-04T06:14:18.656Z,66.20
2018-12-04T06:16:46.889Z,66.00
2018-12-04T06:19:14.735Z,65.60
2018-12-04T06:21:42.846Z,65.60
2018-12-04T06:24:10.901Z,65.80
2018-12-04T06:26:39.116Z,65.60
2018-12-04T06:29:07.225Z,65.50
2018-12-04T06:31:35.345Z,65.40
2018-12-04T06:34:03.431Z,65.70
2018-12-04T06:36:31.599Z,66.00
2018-12-04T06:38:59.796Z,65.80
2018-12-04T06:41:27.934Z,65.50
2018-12-04T06:44:47.050Z,64.80
2018-12-04T06:47:14.793Z,65.30
2018-12-04T06:49:42.553Z,65.60
2018-12-04T06:52:10.495Z,65.70
2018-12-04T06:54:38.270Z,65.90
2018-12-04T06:57:05.925Z,66.50
2018-12-04T06:59:33.687Z,65.60
2018-12-04T07:02:01.913Z,65.40
2018-12-04T07:04:29.769Z,65.40
2018-12-04T07:06:57.687Z,65.30
2018-12-04T07:09:25.599Z,65.00
2018-12-04T07:11:53.589Z,65.20
2018-12-04T07:14:21.389Z,65.40
2018-12-04T07:16:49.250Z,65.20
2018-12-04T07:19:17.126Z,65.10
2018-12-04T07:21:44.988Z,65.20
2018-12-04T07:24:12.792Z,65.20
2018-12-04T07:26:40.581Z,65.30
2018-12-04T07:29:08.413Z,65.00
2018-12-04T07:31:36.175Z,65.30
2018-12-04T07:34:04.115Z,65.20
2018-12-04T07:36:31.888Z,65.00
2018-12-04T07:38:59.543Z,64.40
2018-12-04T07:41:27.320Z,64.50
2018-12-04T07:43:54.965Z,64.10
2018-12-04T07:46:22.612Z,64.60
2018-12-04T07:48:50.286Z,64.60
2018-12-04T07:51:17.892Z,64.70
2018-12-04T07:53:45.577Z,65.10
2018-12-04T07:56:13.381Z,64.60
2018-12-04T07:58:41.036Z,64.50
2018-12-04T08:01:08.690Z,64.50
2018-12-04T08:03:36.498Z,64.60
2018-12-04T08:06:08.695Z,64.70
2018-12-04T08:08:36.328Z,64.80
2018-12-04T08:11:04.075Z,64.70
2018-12-04T08:13:32.047Z,64.60
2018-12-04T08:16:00.950Z,64.50
2018-12-04T08:18:28.966Z,64.60
2018-12-04T08:20:56.859Z,65.00
2018-12-04T08:23:24.793Z,65.90
2018-12-04T08:25:52.715Z,64.90
2018-12-04T08:28:20.579Z,65.80
2018-12-04T08:30:48.477Z,65.90
2018-12-04T08:33:16.392Z,65.80
2018-12-04T08:35:44.320Z,65.60
2018-12-04T08:38:12.354Z,65.40
2018-12-04T08:40:40.315Z,65.10
2018-12-04T08:43:08.286Z,64.90
2018-12-04T08:45:36.469Z,64.80
2018-12-04T08:48:04.324Z,64.70
2018-12-04T08:50:32.023Z,64.70
2018-12-04T08:52:59.807Z,64.60
2018-12-04T08:55:27.499Z,64.40
2018-12-04T08:57:55.185Z,64.40
2018-12-04T09:00:22.838Z,63.70
2018-12-04T09:02:50.487Z,63.70
2018-12-04T09:05:18.198Z,63.90
2018-12-04T09:07:45.971Z,64.40
2018-12-04T09:10:13.634Z,63.90
2018-12-04T09:12:41.311Z,63.80
2018-12-04T09:15:09.225Z,63.90
2018-12-04T09:17:36.924Z,63.10
2018-12-04T09:20:06.291Z,63.10
2018-12-04T09:22:34.157Z,63.20
2018-12-04T09:25:02.133Z,62.80
2018-12-04T09:27:31.252Z,63.10
2018-12-04T09:29:59.069Z,64.10
2018-12-04T09:32:26.805Z,63.70
2018-12-04T09:34:55.190Z,63.40
2018-12-04T09:37:22.866Z,63.30
2018-12-04T09:39:50.709Z,63.20
2018-12-04T09:42:18.347Z,63.10
2018-12-04T09:44:46.018Z,63.50
2018-12-04T09:47:13.633Z,62.70
2018-12-04T09:49:41.299Z,63.70
2018-12-04T09:52:09.971Z,63.60
2018-12-04T09:54:37.593Z,63.20
2018-12-04T09:57:05.239Z,63.00
2018-12-04T09:59:32.859Z,63.20
2018-12-04T10:02:00.786Z,62.50
2018-12-04T10:04:28.471Z,62.00
2018-12-04T10:06:56.445Z,61.90
2018-12-04T10:09:24.475Z,62.00
2018-12-04T10:11:52.512Z,62.00
2018-12-04T10:14:21.644Z,62.10
2018-12-04T10:16:49.678Z,62.20
2018-12-04T10:19:17.782Z,62.10
2018-12-04T10:21:45.849Z,62.10
2018-12-04T10:24:14.226Z,62.50
2018-12-04T10:26:42.305Z,62.30
2018-12-04T10:29:10.375Z,61.30
2018-12-04T10:31:38.332Z,60.70
2018-12-04T10:34:06.317Z,59.80
2018-12-04T10:36:34.200Z,59.60
2018-12-04T10:39:02.194Z,59.10
2018-12-04T10:41:31.731Z,58.10
2018-12-04T10:43:59.655Z,58.00
2018-12-04T10:46:27.505Z,57.50
2018-12-04T10:48:55.621Z,57.20
2018-12-04T10:51:24.365Z,56.90
2018-12-04T10:53:52.196Z,56.70
2018-12-04T10:56:19.999Z,56.60
2018-12-04T10:58:47.768Z,55.90
2018-12-04T11:01:21.680Z,56.10
2018-12-04T11:03:49.541Z,55.20
2018-12-04T11:06:17.371Z,54.70
2018-12-04T11:08:45.033Z,53.50
2018-12-04T11:11:12.730Z,53.00
2018-12-04T11:13:40.315Z,52.80
2018-12-04T11:16:08.019Z,52.80
2018-12-04T11:18:35.650Z,52.20
2018-12-04T11:21:03.287Z,51.90
2018-12-04T11:23:30.956Z,51.10
2018-12-04T11:25:58.668Z,50.60
2018-12-04T11:28:26.389Z,50.20
2018-12-04T11:30:54.122Z,50.50
2018-12-04T11:33:21.790Z,51.00
2018-12-04T11:35:49.449Z,51.80
2018-12-04T11:38:17.066Z,52.30
2018-12-04T11:40:44.749Z,52.00
2018-12-04T11:43:12.619Z,51.10
2018-12-04T11:45:40.534Z,51.10
2018-12-04T11:48:08.579Z,52.20
2018-12-04T11:50:36.429Z,51.20
2018-12-04T11:53:04.336Z,52.10
2018-12-04T11:55:32.076Z,52.00
2018-12-04T11:58:00.034Z,52.70
2018-12-04T12:00:32.702Z,52.50
2018-12-04T12:03:01.314Z,50.20
2018-12-04T12:05:29.450Z,50.20
2018-12-04T12:07:59.173Z,49.60
2018-12-04T12:10:27.130Z,49.80
2018-12-04T12:12:54.858Z,49.60
2018-12-04T12:15:22.997Z,49.80
2018-12-04T12:17:50.710Z,50.40
2018-12-04T12:20:18.412Z,49.60
2018-12-04T12:22:46.164Z,50.50
2018-12-04T12:25:13.844Z,50.30
2018-12-04T12:27:41.646Z,49.60
2018-12-04T12:30:10.030Z,49.10
2018-12-04T12:32:37.660Z,49.10
2018-12-04T12:35:06.724Z,48.60
2018-12-04T12:37:34.441Z,48.20
2018-12-04T12:40:02.848Z,47.60
2018-12-04T12:42:31.689Z,48.30
2018-12-04T12:44:59.665Z,48.30
2018-12-04T12:47:27.778Z,48.50
2018-12-04T12:49:55.707Z,48.50
2018-12-04T12:52:23.717Z,48.70
2018-12-04T12:54:51.433Z,47.90
2018-12-04T12:57:19.240Z,48.00
2018-12-04T12:59:47.214Z,48.60
2018-12-04T13:02:14.955Z,49.20
2018-12-04T13:04:42.785Z,49.20
2018-12-04T13:07:10.615Z,49.20
2018-12-04T13:09:38.450Z,48.90
2018-12-04T13:12:06.861Z,48.20
2018-12-04T13:14:35.087Z,48.30
2018-12-04T13:17:03.205Z,48.40
2018-12-04T13:19:30.919Z,48.70
2018-12-04T13:21:58.861Z,48.80
2018-12-04T13:24:26.625Z,49.10
2018-12-04T13:26:54.513Z,48.90
2018-12-04T13:29:22.344Z,48.00
2018-12-04T13:31:50.249Z,48.90
2018-12-04T13:34:18.079Z,48.90
2018-12-04T13:36:45.905Z,48.90
2018-12-04T13:39:14.217Z,49.60
2018-12-04T13:41:42.061Z,49.50
2018-12-04T13:44:09.861Z,49.60
2018-12-04T13:46:37.643Z,49.70
2018-12-04T13:49:05.535Z,49.40
2018-12-04T13:51:33.332Z,49.50
2018-12-04T13:54:01.115Z,49.90
2018-12-04T13:56:28.805Z,49.90
2018-12-04T13:58:56.513Z,49.90
2018-12-04T14:01:24.201Z,49.90
2018-12-04T14:03:51.934Z,49.80
2018-12-04T14:06:19.814Z,50.00
2018-12-04T14:08:47.527Z,49.90
2018-12-04T14:11:15.338Z,50.20
2018-12-04T14:13:43.119Z,50.00
2018-12-04T14:16:10.964Z,50.10
2018-12-04T14:18:38.759Z,50.00
2018-12-04T14:21:06.615Z,49.80
2018-12-04T14:23:35.332Z,49.40
2018-12-04T14:26:03.365Z,49.70
2018-12-04T14:28:31.189Z,49.80
2018-12-04T14:30:59.109Z,50.40
2018-12-04T14:33:26.876Z,50.50
2018-12-04T14:35:54.630Z,51.10
2018-12-04T14:38:24.603Z,50.40
2018-12-04T14:40:52.146Z,50.60
2018-12-04T14:43:19.886Z,50.40
2018-12-04T14:45:47.644Z,50.60
2018-12-04T14:48:15.408Z,50.70
2018-12-04T14:50:43.191Z,50.50
2018-12-04T14:53:10.970Z,50.80
2018-12-04T14:55:38.696Z,51.00
2018-12-04T14:58:06.593Z,50.90
2018-12-04T15:00:34.315Z,51.10
2018-12-04T15:03:02.107Z,51.10
2018-12-04T15:05:29.801Z,51.00
2018-12-04T15:07:57.457Z,51.20
2018-12-04T15:10:25.152Z,51.40
2018-12-04T15:12:53.052Z,51.40
2018-12-04T15:15:21.016Z,51.50
2018-12-04T15:17:48.969Z,51.60
2018-12-04T15:20:16.834Z,51.30
2018-12-04T15:22:44.791Z,51.60
2018-12-04T15:25:12.730Z,51.60
2018-12-04T15:27:40.481Z,51.60
2018-12-04T15:30:08.715Z,51.60
2018-12-04T15:32:36.557Z,51.60
2018-12-04T15:35:04.953Z,51.70
2018-12-04T15:37:32.735Z,51.90
2018-12-04T15:40:00.522Z,52.20
2018-12-04T15:42:28.343Z,52.20
2018-12-04T15:44:56.202Z,52.20
2018-12-04T15:47:23.911Z,52.20
2018-12-04T15:49:51.720Z,52.20
2018-12-04T15:52:19.458Z,52.10
2018-12-04T15:54:47.501Z,51.70
2018-12-04T15:57:16.090Z,51.80
2018-12-04T15:59:44.576Z,51.90
2018-12-04T16:02:13.103Z,51.80
2018-12-04T16:04:41.232Z,51.70
2018-12-04T16:07:09.800Z,51.70
2018-12-04T16:09:37.759Z,51.60
2018-12-04T16:12:06.304Z,51.60
2018-12-04T16:14:34.690Z,51.70
2018-12-04T16:17:03.198Z,51.90
2018-12-04T16:19:31.592Z,51.90
2018-12-04T16:21:59.956Z,51.90
2018-12-04T16:24:28.453Z,51.90
2018-12-04T16:26:57.107Z,51.90
2018-12-04T16:29:25.404Z,51.90
2018-12-04T16:31:53.689Z,51.80
2018-12-04T16:34:21.974Z,51.50
2018-12-04T16:36:50.242Z,51.50
2018-12-04T16:39:18.517Z,51.40
2018-12-04T16:41:46.899Z,51.30
2018-12-04T16:44:15.074Z,51.60
2018-12-04T16:46:43.322Z,51.90
2018-12-04T16:49:11.716Z,52.40
2018-12-04T16:51:39.842Z,52.20
2018-12-04T16:54:08.129Z,52.30
2018-12-04T16:56:36.366Z,52.30
2018-12-04T16:59:04.727Z,52.30
2018-12-04T17:01:32.759Z,52.40
2018-12-04T17:04:01.271Z,52.50
2018-12-04T17:06:29.644Z,52.60
2018-12-04T17:08:57.808Z,52.90
2018-12-04T17:11:25.907Z,53.10
2018-12-04T17:13:53.964Z,53.10
2018-12-04T17:16:21.947Z,53.00
2018-12-04T17:18:50.238Z,52.60
2018-12-04T17:21:18.397Z,52.60
2018-12-04T17:23:46.580Z,52.60
2018-12-04T17:26:14.683Z,52.60
2018-12-04T17:28:42.749Z,52.70
2018-12-04T17:31:10.696Z,52.80
2018-12-04T17:33:38.730Z,52.80
2018-12-04T17:36:06.756Z,52.80
2018-12-04T17:38:34.767Z,52.90
2018-12-04T17:41:02.732Z,52.80
2018-12-04T17:43:30.846Z,52.70
2018-12-04T17:45:58.599Z,52.70
2018-12-04T17:48:26.470Z,52.60
2018-12-04T17:50:54.332Z,52.50
2018-12-04T17:53:22.104Z,52.60
2018-12-04T17:55:49.928Z,52.50
2018-12-04T17:58:17.750Z,52.60
2018-12-04T18:00:45.600Z,52.80
2018-12-04T18:03:13.462Z,52.70
2018-12-04T18:05:41.300Z,52.80
2018-12-04T18:08:09.174Z,53.00
2018-12-04T18:10:37.231Z,53.10
2018-12-04T18:13:04.920Z,52.90
2018-12-04T18:15:34.662Z,52.90
2018-12-04T18:18:02.625Z,52.90
2018-12-04T18:20:30.340Z,53.00
2018-12-04T18:22:58.010Z,53.20
2018-12-04T18:25:25.791Z,53.10
2018-12-04T18:27:53.467Z,53.10
2018-12-04T18:30:21.510Z,53.20
2018-12-04T18:32:49.232Z,53.30
2018-12-04T18:35:17.487Z,53.00
2018-12-04T18:37:45.164Z,53.10
2018-12-04T18:40:12.833Z,53.00
2018-12-04T18:42:40.489Z,53.20
2018-12-04T18:45:08.422Z,53.30
2018-12-04T18:47:36.064Z,53.40
2018-12-04T18:50:06.347Z,53.30
2018-12-04T18:52:34.040Z,53.30
2018-12-04T18:55:02.494Z,53.30
2018-12-04T18:57:30.225Z,53.30
2018-12-04T18:59:57.896Z,53.20
2018-12-04T19:02:25.596Z,53.30
2018-12-04T19:04:53.293Z,53.20
2018-12-04T19:07:21.218Z,53.30
2018-12-04T19:09:48.981Z,53.10
2018-12-04T19:12:16.757Z,53.30
2018-12-04T19:14:44.519Z,53.30
2018-12-04T19:17:12.201Z,53.30
2018-12-04T19:19:39.932Z,53.50
2018-12-04T19:22:07.720Z,53.60
2018-12-04T19:24:35.470Z,53.70
2018-12-04T19:27:03.217Z,53.80
2018-12-04T19:29:30.901Z,53.90
2018-12-04T19:31:58.569Z,53.90
2018-12-04T19:34:26.231Z,53.80
2018-12-04T19:36:54.149Z,53.70
2018-12-04T19:39:22.219Z,53.80
2018-12-04T19:41:50.840Z,53.70
2018-12-04T19:44:19.718Z,53.60
2018-12-04T19:46:49.121Z,53.70
2018-12-04T19:49:17.511Z,53.70
2018-12-04T19:51:45.986Z,53.60
2018-12-04T19:54:13.867Z,53.70
2018-12-04T19:56:42.104Z,53.90
2018-12-04T19:59:10.079Z,53.90
2018-12-04T20:01:38.369Z,54.00
2018-12-04T20:04:06.637Z,54.10
2018-12-04T20:06:34.919Z,54.80
2018-12-04T20:09:05.274Z,54.20
2018-12-04T20:11:33.388Z,54.10
2018-12-04T20:14:01.076Z,54.10
2018-12-04T20:16:28.911Z,54.20
2018-12-04T20:18:57.235Z,54.10
2018-12-04T20:21:25.700Z,54.10
2018-12-04T20:23:53.940Z,54.10
2018-12-04T20:26:23.252Z,54.20
2018-12-04T20:28:51.096Z,54.20
2018-12-04T20:31:19.319Z,54.20
2018-12-04T20:33:50.275Z,54.10
2018-12-04T20:36:18.423Z,54.00
2018-12-04T20:38:46.692Z,54.20
2018-12-04T20:41:14.855Z,54.30
2018-12-04T20:43:42.800Z,54.30
2018-12-04T20:46:10.836Z,54.40
2018-12-04T20:48:38.984Z,54.50
2018-12-04T20:51:06.957Z,54.70
2018-12-04T20:53:34.863Z,54.90
2018-12-04T20:56:02.792Z,55.20
2018-12-04T20:58:30.700Z,55.30
2018-12-04T21:00:58.820Z,55.50
2018-12-04T21:03:26.622Z,55.60
2018-12-04T21:05:54.660Z,55.70
2018-12-04T21:08:22.562Z,55.70
2018-12-04T21:10:50.690Z,55.70
2018-12-04T21:13:18.673Z,55.80
2018-12-04T21:15:46.576Z,55.80
2018-12-04T21:18:14.400Z,56.00
2018-12-04T21:20:42.358Z,56.10
2018-12-04T21:23:10.169Z,56.30
2018-12-04T21:25:38.098Z,56.40
2018-12-04T21:28:11.489Z,56.50
2018-12-04T21:30:44.744Z,56.60
2018-12-04T21:33:18.106Z,56.70
2018-12-04T21:35:51.379Z,56.80
2018-12-04T21:38:24.733Z,57.00
2018-12-04T21:41:00.185Z,57.10
2018-12-04T21:43:33.566Z,57.20
2018-12-04T21:46:06.958Z,57.30
2018-12-04T21:48:35.321Z,57.30
2018-12-04T21:51:03.454Z,57.40
2018-12-04T21:53:31.329Z,57.50
2018-12-04T21:55:58.990Z,57.60
2018-12-04T21:58:26.657Z,57.70
2018-12-04T22:00:54.384Z,57.80
2018-12-04T22:03:21.999Z,57.80
2018-12-04T22:05:49.639Z,57.70
2018-12-04T22:08:17.296Z,57.80
2018-12-04T22:10:44.970Z,57.80
2018-12-04T22:13:12.731Z,57.90
2018-12-04T22:15:40.447Z,57.90
2018-12-04T22:18:08.103Z,57.80
2018-12-04T22:20:36.106Z,58.30
2018-12-04T22:23:03.910Z,57.70
2018-12-04T22:25:31.580Z,57.60
2018-12-04T22:27:59.276Z,57.50
2018-12-04T22:30:26.947Z,57.50
2018-12-04T22:32:54.627Z,57.60
2018-12-04T22:35:22.300Z,57.60
2018-12-04T22:37:49.959Z,57.60
2018-12-04T22:40:17.622Z,57.60
2018-12-04T22:42:45.251Z,57.70
2018-12-04T22:45:18.916Z,57.80
2018-12-04T22:47:46.693Z,58.00
2018-12-04T22:50:14.324Z,58.00
2018-12-04T22:52:41.944Z,58.00
2018-12-04T22:55:09.605Z,57.80
2018-12-04T22:57:37.438Z,57.80
2018-12-04T23:00:12.937Z,58.00
2018-12-04T23:02:41.759Z,58.00
2018-12-04T23:05:09.532Z,58.00
2018-12-04T23:07:37.191Z,58.00
2018-12-04T23:10:05.293Z,58.00
2018-12-04T23:12:32.986Z,57.90
2018-12-04T23:15:00.612Z,57.80
2018-12-04T23:17:28.331Z,57.80
2018-12-04T23:19:56.025Z,57.80
2018-12-04T23:22:23.709Z,57.90
2018-12-04T23:24:51.365Z,57.80
2018-12-04T23:27:19.197Z,57.80
2018-12-04T23:29:46.987Z,57.90
2018-12-04T23:32:14.640Z,57.90
2018-12-04T23:34:42.367Z,58.00
2018-12-04T23:37:10.055Z,58.00
2018-12-04T23:39:37.662Z,58.20
2018-12-04T23:42:05.368Z,58.10
2018-12-04T23:44:33.079Z,58.20
2018-12-04T23:47:00.683Z,58.30
2018-12-04T23:49:28.359Z,58.40
2018-12-04T23:51:56.005Z,58.30
2018-12-04T23:54:23.638Z,58.20
2018-12-04T23:56:51.303Z,58.30
2018-12-04T23:59:18.929Z,58.50
